createdAt,value
2022-11-28T00:01:58.799Z,101287.64
2022-11-28T00:08:23.151Z,101286.19
2022-11-28T00:14:47.623Z,101286.18
2022-11-28T00:21:12.010Z,101278.86
2022-11-28T00:27:36.241Z,101279.38
2022-11-28T00:34:00.417Z,101278.64
2022-11-28T00:40:24.731Z,101287.30
2022-11-28T00:46:48.975Z,101286.11
2022-11-28T00:53:13.380Z,101278.48
2022-11-28T00:59:37.665Z,101274.61
2022-11-28T01:06:01.968Z,101276.73
2022-11-28T01:12:26.175Z,101278.56
2022-11-28T01:18:50.155Z,101276.06
2022-11-28T01:25:14.421Z,101271.59
2022-11-28T01:31:38.662Z,101266.98
2022-11-28T01:38:02.925Z,101262.09
2022-11-28T01:44:36.096Z,101257.50
2022-11-28T01:51:00.083Z,101254.25
2022-11-28T01:57:24.434Z,101240.21
2022-11-28T02:03:51.707Z,101229.05
2022-11-28T02:10:15.957Z,101223.77
2022-11-28T02:16:49.238Z,101210.41
2022-11-28T02:23:22.219Z,101202.75
2022-11-28T02:30:04.996Z,101204.77
2022-11-28T02:36:35.242Z,101199.29
2022-11-28T02:42:59.623Z,101195.22
2022-11-28T02:49:39.205Z,101193.10
2022-11-28T02:56:03.519Z,101192.16
2022-11-28T03:02:30.757Z,101190.67
2022-11-28T03:08:58.064Z,101191.13
2022-11-28T03:15:25.340Z,101191.71
2022-11-28T03:21:50.088Z,101193.66
2022-11-28T03:28:16.959Z,101190.74
2022-11-28T03:34:41.606Z,101182.87
2022-11-28T03:41:06.479Z,101182.93
2022-11-28T03:47:33.686Z,101184.39
2022-11-28T03:54:00.530Z,101185.20
2022-11-28T04:00:27.559Z,101183.31
2022-11-28T04:07:03.741Z,101179.97
2022-11-28T04:13:37.544Z,101178.58
2022-11-28T04:20:01.936Z,101182.92
2022-11-28T04:26:26.500Z,101181.70
2022-11-28T04:32:50.872Z,101179.38
2022-11-28T04:39:15.212Z,101176.25
2022-11-28T04:45:48.570Z,101175.35
2022-11-28T04:52:19.112Z,101177.95
2022-11-28T04:58:43.589Z,101172.40
2022-11-28T05:05:03.593Z,101171.63
2022-11-28T05:11:27.915Z,101171.48
2022-11-28T05:17:52.307Z,101171.45
2022-11-28T05:24:16.580Z,101172.58
2022-11-28T05:30:40.925Z,101166.91
2022-11-28T05:37:05.330Z,101169.00
2022-11-28T05:43:29.756Z,101164.71
2022-11-28T05:49:54.187Z,101169.02
2022-11-28T05:56:18.527Z,101167.23
2022-11-28T06:02:42.866Z,101167.58
2022-11-28T06:09:07.296Z,101167.98
2022-11-28T06:15:34.882Z,101171.95
2022-11-28T06:22:04.644Z,101169.35
2022-11-28T06:28:29.036Z,101172.77
2022-11-28T06:34:53.338Z,101166.98
2022-11-28T06:41:17.798Z,101167.77
2022-11-28T06:47:42.166Z,101170.59
2022-11-28T06:54:06.590Z,101165.95
2022-11-28T07:00:30.850Z,101167.52
2022-11-28T07:06:55.514Z,101171.39
2022-11-28T07:13:19.956Z,101174.49
2022-11-28T07:19:44.740Z,101171.77
2022-11-28T07:26:10.181Z,101170.05
2022-11-28T07:32:34.601Z,101167.23
2022-11-28T07:38:59.048Z,101168.60
2022-11-28T07:45:33.003Z,101169.08
2022-11-28T07:52:07.920Z,101166.73
2022-11-28T07:58:32.332Z,101164.41
2022-11-28T08:04:56.806Z,101165.97
2022-11-28T08:11:21.297Z,101170.34
2022-11-28T08:17:45.619Z,101169.64
2022-11-28T08:24:09.989Z,101171.96
2022-11-28T08:30:34.457Z,101173.05
2022-11-28T08:36:58.876Z,101167.70
2022-11-28T08:43:23.286Z,101170.00
2022-11-28T08:49:47.724Z,101172.37
2022-11-28T08:56:12.168Z,101168.41
2022-11-28T09:02:36.617Z,101163.25
2022-11-28T09:09:01.065Z,101164.17
2022-11-28T09:15:25.380Z,101158.33
2022-11-28T09:21:54.571Z,101159.00
2022-11-28T09:28:21.875Z,101148.71
2022-11-28T09:34:46.232Z,101144.10
2022-11-28T09:41:16.804Z,101134.44
2022-11-28T09:47:41.194Z,101132.17
2022-11-28T09:54:17.303Z,101123.61
2022-11-28T10:00:41.683Z,101118.00
2022-11-28T10:07:06.085Z,101115.77
2022-11-28T10:14:07.326Z,101108.21
2022-11-28T10:20:41.512Z,101103.86
2022-11-28T10:27:06.118Z,101098.91
2022-11-28T10:33:30.558Z,101092.28
2022-11-28T10:39:54.955Z,101092.48
2022-11-28T10:46:17.541Z,101086.94
2022-11-28T10:52:47.893Z,101081.74
2022-11-28T10:59:15.360Z,101078.16
2022-11-28T11:05:39.683Z,101073.81
2022-11-28T11:12:06.661Z,101068.23
2022-11-28T11:18:33.935Z,101068.33
2022-11-28T11:25:13.447Z,101066.72
2022-11-28T11:31:42.906Z,101068.67
2022-11-28T11:38:19.444Z,101071.56
2022-11-28T11:44:55.638Z,101074.31
2022-11-28T11:51:19.930Z,101076.93
2022-11-28T11:57:44.269Z,101076.52
2022-11-28T12:04:52.517Z,101075.61
2022-11-28T12:11:17.022Z,101081.47
2022-11-28T12:17:58.802Z,101081.95
2022-11-28T12:24:32.342Z,101079.04
2022-11-28T12:31:02.461Z,101070.66
2022-11-28T12:37:33.079Z,101066.95
2022-11-28T12:44:27.767Z,101063.76
2022-11-28T12:51:06.129Z,101060.66
2022-11-28T12:57:30.757Z,101060.38
2022-11-28T13:04:04.061Z,101062.45
2022-11-28T13:10:40.747Z,101055.59
2022-11-28T13:17:11.221Z,101055.99
2022-11-28T13:23:35.867Z,101050.02
2022-11-28T13:29:58.505Z,101055.75
2022-11-28T13:43:33.710Z,101058.58
2022-11-28T13:50:02.257Z,101055.67
2022-11-28T13:56:47.997Z,101056.46
2022-11-28T14:03:27.443Z,101054.85
2022-11-28T14:10:04.103Z,101051.02
2022-11-28T14:16:46.907Z,101050.36
2022-11-28T14:23:32.911Z,101043.06
2022-11-28T14:30:03.109Z,101040.38
2022-11-28T14:36:44.620Z,101035.74
2022-11-28T14:43:09.037Z,101033.63
2022-11-28T14:49:39.588Z,101034.73
2022-11-28T14:56:06.797Z,101030.60
2022-11-28T15:02:31.266Z,101026.59
2022-11-28T15:08:58.953Z,101026.16
2022-11-28T15:15:23.281Z,101025.97
2022-11-28T15:21:53.433Z,101027.69
2022-11-28T15:28:17.854Z,101029.45
2022-11-28T15:34:42.466Z,101029.24
2022-11-28T15:41:01.255Z,101029.02
2022-11-28T15:47:25.635Z,101028.68
2022-11-28T15:53:59.193Z,101026.41
2022-11-28T16:00:23.495Z,101026.48
2022-11-28T16:06:47.912Z,101026.10
2022-11-28T16:13:12.253Z,101029.38
2022-11-28T16:19:36.015Z,101024.36
2022-11-28T16:26:02.894Z,101029.90
2022-11-28T16:32:27.309Z,101031.83
2022-11-28T16:38:54.222Z,101038.91
2022-11-28T16:45:21.441Z,101036.83
2022-11-28T16:51:53.977Z,101042.83
2022-11-28T16:58:27.459Z,101043.52
2022-11-28T17:05:03.683Z,101041.54
2022-11-28T17:11:28.118Z,101044.84
2022-11-28T17:17:52.495Z,101050.53
2022-11-28T17:24:16.938Z,101051.25
2022-11-28T17:30:41.424Z,101055.79
2022-11-28T17:37:05.807Z,101053.64
2022-11-28T17:43:32.391Z,101059.63
2022-11-28T17:50:00.367Z,101056.87
2022-11-28T17:56:25.210Z,101063.40
2022-11-28T18:02:50.171Z,101054.00
2022-11-28T18:09:14.662Z,101059.38
2022-11-28T18:15:39.046Z,101064.48
2022-11-28T18:22:03.479Z,101062.30
2022-11-28T18:28:27.793Z,101059.02
2022-11-28T18:34:52.224Z,101061.70
2022-11-28T18:41:16.593Z,101065.59
2022-11-28T18:47:40.925Z,101070.86
2022-11-28T18:54:05.227Z,101068.59
2022-11-28T19:00:29.652Z,101070.29
2022-11-28T19:06:53.983Z,101074.19
2022-11-28T19:13:18.366Z,101073.51
2022-11-28T19:19:42.942Z,101074.80
2022-11-28T19:26:07.754Z,101078.34
2022-11-28T19:32:32.020Z,101077.44
2022-11-28T19:38:56.419Z,101083.72
2022-11-28T19:45:20.851Z,101087.85
2022-11-28T19:51:45.230Z,101086.13
2022-11-28T19:58:09.589Z,101080.42
2022-11-28T20:04:33.955Z,101078.63
2022-11-28T20:10:58.267Z,101075.91
2022-11-28T20:17:22.618Z,101080.98
2022-11-28T20:23:47.005Z,101078.73
2022-11-28T20:30:11.313Z,101075.85
2022-11-28T20:36:35.709Z,101069.31
2022-11-28T20:43:00.281Z,101070.83
2022-11-28T20:49:24.655Z,101075.12
2022-11-28T20:55:49.069Z,101083.35
2022-11-28T21:02:16.431Z,101083.27
2022-11-28T21:08:40.973Z,101084.65
2022-11-28T21:15:05.290Z,101080.94
2022-11-28T21:21:29.556Z,101080.88
2022-11-28T21:27:53.933Z,101081.50
2022-11-28T21:34:18.352Z,101079.62
2022-11-28T21:40:42.681Z,101085.80
2022-11-28T21:47:07.359Z,101087.95
2022-11-28T21:53:31.643Z,101083.66
2022-11-28T21:59:55.965Z,101077.50
2022-11-28T22:06:02.812Z,101077.44
2022-11-28T22:12:27.616Z,101074.59
2022-11-28T22:18:51.908Z,101069.49
2022-11-28T22:25:16.336Z,101065.45
2022-11-28T22:31:40.492Z,101063.64
2022-11-28T22:38:04.843Z,101057.81
2022-11-28T22:44:29.253Z,101054.59
2022-11-28T22:50:53.672Z,101052.95
2022-11-28T22:57:17.982Z,101056.63
2022-11-28T23:03:42.272Z,101058.92
2022-11-28T23:10:06.725Z,101053.79
2022-11-28T23:16:31.030Z,101050.04
2022-11-28T23:22:48.494Z,101056.34
2022-11-28T23:29:12.903Z,101057.16
2022-11-28T23:35:37.313Z,101054.12
2022-11-28T23:42:01.708Z,101043.64
2022-11-28T23:48:25.988Z,101041.17
2022-11-28T23:54:50.412Z,101040.70
